VABB/BOM METAR and TAF weather

Enter ICAO airport designator
Station Type Date Time Source
VABB METAR 2019/07/17 12:30 UTC NOAA

VABB 171230Z 25012KT 4000 HZ FEW020 SCT025 FEW030CB BKN100 31/26 Q1005 NOSIG


Station Type Date Time Source
VABB Decoded METAR 2019/07/17 12:30 UTC NOAA

Bombay / Santacruz, India (VABB) 19-07N 072-51E 14M
Jul 17, 2019 - 08:30 AM EDT / 2019.07.17 1230 UTC
Wind: from the WSW (250 degrees) at 14 MPH (12 KT):0
Visibility: 2 mile(s):0
Sky conditions: mostly cloudy
Weather: haze; Cumulonimbus clouds observed
Temperature: 87 F (31 C)
Heat index: 99.7 F (37.6 C):1
Dew Point: 78 F (26 C)
Relative Humidity: 74%
Pressure (altimeter): 29.68 in. Hg (1005 hPa)
ob: VABB 171230Z 25012KT 4000 HZ FEW020 SCT025 FEW030CB BKN100 31/26 Q1005 NOSIG
cycle: 12

Station Type Date Time Source
VABB TAF 2019/07/17 12:12 UTC NOAA

TAF TAF VABB 171100Z 1712/1818 25010KT 4000 HZ SCT018 SCT025 BKN090
TEMPO 1712/1721 2000 -RA SHRA SCT012 SCT018 FEW025TCU BKN090
BECMG 1713/1715 3000 HZ
BECMG 1722/1724 2500 HZ
TEMPO 1800/1812 2000 -RA SHRA FEW012 SCT018 FEW025TCU BKN090
BECMG 1804/1806 4000 HZ
BECMG 1813/1815 3000 HZ
TEMPO 1812/1818 2000 -RA SHRA SCT012 SCT018 FEW025TCU BKN090

Example: see airport list